Swift Arrow — WAFK — position and weather

sailwx.info

Track history (hours):
 
Tides and Currents Weather Stations Pressure Air Temp Water Temp Dewpoint Dewpoint Depression Visibility Wind Speed Wind Dir Waves Ship Positions

Swift Arrow

Owner: ARROW LAUNCH SERVICE INC, Port Angeles, WA. More information available from US FCC via Universal Licensing System and Coast Guard Vessel Documentation Center.

Last reported at 2015-May-27 23:34 UTC. Time now 2015-May-28 10:11 UTC.
Position N 47°60' W 122°13'.

Type: Port tender. MMSI: 369021000.

Date/timePositionNaut miles runAvg speedWind from/ knotsBaromVisibWave heightAir tempDewpointWater temp
2015-May-27 23:34N 47°60' W 122°13'1 1.2
2015-May-27 22:34N 47°59' W 122°14'1 1.2
2015-May-27 21:34N 47°60' W 122°13'0 0.0
2015-May-27 19:33N 47°60' W 122°13'0 0.0
2015-May-27 18:32N 47°60' W 122°13'0 0.0
2015-May-27 03:26N 47°60' W 122°13'0 0.4
2015-May-27 02:33N 47°59' W 122°14'0 0.0
2015-May-26 22:33N 47°60' W 122°14'1 1.3
2015-May-26 21:33N 47°58' W 122°15'1 0.7
2015-May-26 20:31N 47°59' W 122°15'1 1.4
2015-May-26 19:33N 47°60' W 122°13'0 0.0
2015-May-26 18:33N 47°60' W 122°13'0 0.0
2015-May-25 20:30N 47°60' W 122°13'1 1.4
2015-May-25 19:33N 47°58' W 122°14'1 0.5
2015-May-25 18:34N 47°59' W 122°13'1 0.7
2015-May-25 17:17N 47°60' W 122°13'0 0.0
2015-May-25 04:12N 47°60' W 122°13'1 1.8
2015-May-25 03:33N 47°59' W 122°15'1 0.2
2015-May-24 20:34N 47°60' W 122°13'1 0.8
2015-May-24 19:33N 47°59' W 122°13'0 0.1
2015-May-24 18:33N 47°59' W 122°13'1 0.8
2015-May-24 17:25N 47°60' W 122°13'2 1.8
2015-May-24 16:33N 47°60' W 122°16'3 2.4
2015-May-24 15:22N 48°02' W 122°18'4 5.1
2015-May-24 14:33N 47°59' W 122°14'0 0.0
2015-May-24 07:08N 47°60' W 122°13'1 1.7
2015-May-24 06:22N 47°59' W 122°15'1 0.1
2015-May-23 15:15N 47°60' W 122°13'1 1.4
2015-May-23 14:33N 47°59' W 122°13'6 6.2
2015-May-23 13:34N 47°55' W 122°20'1717.0
2015-May-23 12:34N 47°38' W 122°25'6 0.8
2015-May-23 04:30N 47°33' W 122°20'0 0.0
2015-May-23 03:33N 47°33' W 122°20'2 1.6
2015-May-23 02:33N 47°34' W 122°21'4 3.5
2015-May-23 01:28N 47°38' W 122°23'2 2.4
2015-May-23 00:33N 47°36' W 122°22'3 3.2
2015-May-22 23:33N 47°33' W 122°20'0 0.0
2015-May-22 22:28N 47°33' W 122°20'1 1.5
2015-May-22 21:33N 47°34' W 122°21'0 0.1
2015-May-22 20:33N 47°34' W 122°21'4 4.0
2015-May-22 19:33N 47°38' W 122°23'0 0.0
2015-May-22 18:33N 47°38' W 122°23'0 0.0
2015-May-22 17:33N 47°38' W 122°23'0 0.0
2015-May-22 16:33N 47°38' W 122°23'2 2.2
2015-May-22 15:34N 47°39' W 122°26'1616.5
2015-May-22 14:33N 47°55' W 122°20'7 0.8
2015-May-22 06:17N 47°60' W 122°13'1 1.2
2015-May-22 05:33N 47°59' W 122°13'0 0.1
2015-May-22 04:33N 47°59' W 122°13'1 0.5
2015-May-22 03:33N 47°59' W 122°14'1 0.9
2015-May-22 02:23N 47°60' W 122°13'0 0.0
2015-May-21 23:26N 47°60' W 122°13'1 1.4
2015-May-21 22:33N 47°59' W 122°15'1515.0
2015-May-21 21:34N 47°46' W 122°25'1211.4
2015-May-21 20:29N 47°34' W 122°21'1 1.2
2015-May-21 19:26N 47°35' W 122°21'0 0.0
2015-May-21 18:33N 47°35' W 122°21'1 0.5
2015-May-21 17:33N 47°35' W 122°22'1 0.9
2015-May-21 16:33N 47°36' W 122°22'2 1.7
2015-May-21 15:33N 47°34' W 122°21'0 0.0
2015-May-21 05:09N 47°34' W 122°21'3 5.0
2015-May-21 04:33N 47°37' W 122°22'3 2.8
2015-May-21 03:29N 47°34' W 122°21'1112.1
2015-May-21 02:33N 47°45' W 122°25'1816.1
2015-May-21 01:26N 48°03' W 122°24'1614.8
2015-May-21 00:20N 48°19' W 122°30'7 8.5
2015-May-20 23:31N 48°26' W 122°30'7 6.8
2015-May-20 22:33N 48°31' W 122°36'1 0.0
2015-May-18 19:31N 48°31' W 122°35'1 0.9
2015-May-18 18:22N 48°31' W 122°37'0 0.1
2015-May-18 17:26N 48°31' W 122°36'1 0.9
2015-May-18 16:27N 48°31' W 122°35'5 5.3
2015-May-18 15:33N 48°35' W 122°32'  
Track history (hours):
 
Tides and Currents Weather Stations Pressure Air Temp Water Temp Dewpoint Dewpoint Depression Visibility Wind Speed Wind Dir Waves Ship Positions

Swift Arrow

Owner: ARROW LAUNCH SERVICE INC, Port Angeles, WA. More information available from US FCC via Universal Licensing System and Coast Guard Vessel Documentation Center.

Last reported at 2015-May-27 23:34 UTC. Time now 2015-May-28 10:11 UTC.
Position N 47°60' W 122°13'.

Type: Port tender. MMSI: 369021000.

Date/timePositionNaut miles runAvg speedWind from/ knotsBaromVisibWave heightAir tempDewpointWater temp
2015-May-27 23:34N 47°60' W 122°13'1 1.2
2015-May-27 22:34N 47°59' W 122°14'1 1.2
2015-May-27 21:34N 47°60' W 122°13'0 0.0
2015-May-27 19:33N 47°60' W 122°13'0 0.0
2015-May-27 18:32N 47°60' W 122°13'0 0.0
2015-May-27 03:26N 47°60' W 122°13'0 0.4
2015-May-27 02:33N 47°59' W 122°14'0 0.0
2015-May-26 22:33N 47°60' W 122°14'1 1.3
2015-May-26 21:33N 47°58' W 122°15'1 0.7
2015-May-26 20:31N 47°59' W 122°15'1 1.4
2015-May-26 19:33N 47°60' W 122°13'0 0.0
2015-May-26 18:33N 47°60' W 122°13'0 0.0
2015-May-25 20:30N 47°60' W 122°13'1 1.4
2015-May-25 19:33N 47°58' W 122°14'1 0.5
2015-May-25 18:34N 47°59' W 122°13'1 0.7
2015-May-25 17:17N 47°60' W 122°13'0 0.0
2015-May-25 04:12N 47°60' W 122°13'1 1.8
2015-May-25 03:33N 47°59' W 122°15'1 0.2
2015-May-24 20:34N 47°60' W 122°13'1 0.8
2015-May-24 19:33N 47°59' W 122°13'0 0.1
2015-May-24 18:33N 47°59' W 122°13'1 0.8
2015-May-24 17:25N 47°60' W 122°13'2 1.8
2015-May-24 16:33N 47°60' W 122°16'3 2.4
2015-May-24 15:22N 48°02' W 122°18'4 5.1
2015-May-24 14:33N 47°59' W 122°14'0 0.0
2015-May-24 07:08N 47°60' W 122°13'1 1.7
2015-May-24 06:22N 47°59' W 122°15'1 0.1
2015-May-23 15:15N 47°60' W 122°13'1 1.4
2015-May-23 14:33N 47°59' W 122°13'6 6.2
2015-May-23 13:34N 47°55' W 122°20'1717.0
2015-May-23 12:34N 47°38' W 122°25'6 0.8
2015-May-23 04:30N 47°33' W 122°20'0 0.0
2015-May-23 03:33N 47°33' W 122°20'2 1.6
2015-May-23 02:33N 47°34' W 122°21'4 3.5
2015-May-23 01:28N 47°38' W 122°23'2 2.4
2015-May-23 00:33N 47°36' W 122°22'3 3.2
2015-May-22 23:33N 47°33' W 122°20'0 0.0
2015-May-22 22:28N 47°33' W 122°20'1 1.5
2015-May-22 21:33N 47°34' W 122°21'0 0.1
2015-May-22 20:33N 47°34' W 122°21'4 4.0
2015-May-22 19:33N 47°38' W 122°23'0 0.0
2015-May-22 18:33N 47°38' W 122°23'0 0.0
2015-May-22 17:33N 47°38' W 122°23'0 0.0
2015-May-22 16:33N 47°38' W 122°23'2 2.2
2015-May-22 15:34N 47°39' W 122°26'1616.5
2015-May-22 14:33N 47°55' W 122°20'7 0.8
2015-May-22 06:17N 47°60' W 122°13'1 1.2
2015-May-22 05:33N 47°59' W 122°13'0 0.1
2015-May-22 04:33N 47°59' W 122°13'1 0.5
2015-May-22 03:33N 47°59' W 122°14'1 0.9
2015-May-22 02:23N 47°60' W 122°13'0 0.0
2015-May-21 23:26N 47°60' W 122°13'1 1.4
2015-May-21 22:33N 47°59' W 122°15'1515.0
2015-May-21 21:34N 47°46' W 122°25'1211.4
2015-May-21 20:29N 47°34' W 122°21'1 1.2
2015-May-21 19:26N 47°35' W 122°21'0 0.0
2015-May-21 18:33N 47°35' W 122°21'1 0.5
2015-May-21 17:33N 47°35' W 122°22'1 0.9
2015-May-21 16:33N 47°36' W 122°22'2 1.7
2015-May-21 15:33N 47°34' W 122°21'0 0.0
2015-May-21 05:09N 47°34' W 122°21'3 5.0
2015-May-21 04:33N 47°37' W 122°22'3 2.8
2015-May-21 03:29N 47°34' W 122°21'1112.1
2015-May-21 02:33N 47°45' W 122°25'1816.1
2015-May-21 01:26N 48°03' W 122°24'1614.8
2015-May-21 00:20N 48°19' W 122°30'7 8.5
2015-May-20 23:31N 48°26' W 122°30'7 6.8
2015-May-20 22:33N 48°31' W 122°36'1 0.0
2015-May-18 19:31N 48°31' W 122°35'1 0.9
2015-May-18 18:22N 48°31' W 122°37'0 0.1
2015-May-18 17:26N 48°31' W 122°36'1 0.9
2015-May-18 16:27N 48°31' W 122°35'5 5.3
2015-May-18 15:33N 48°35' W 122°32'  

Dump ship's entire track history